Time;durP1;ratioP1;P1;durP2;ratioP2;P2;SDS_P1;SDS_P2;PMS_P1;PMS_P2;Temp;Humidity;BMP_temperature;BMP_pressure;BME280_temperature;BME280_humidity;BME280_pressure;Samples;Min_cycle;Max_cycle;Signal;HPM_P1;HPM_P2
2023/12/30 00:01:21;;;;;;;16.70;16.20;;;22.00;54.50;;;;;;4992609;28;20502;-68
2023/12/30 00:03:48;;;;;;;17.23;16.70;;;22.00;54.50;;;;;;4993781;28;20466;-68
2023/12/30 00:06:15;;;;;;;16.33;15.93;;;22.00;54.50;;;;;;4993539;28;20949;-68
2023/12/30 00:08:42;;;;;;;17.13;16.60;;;22.00;54.40;;;;;;4993935;28;20863;-68
2023/12/30 00:11:09;;;;;;;16.87;16.20;;;22.00;54.40;;;;;;4993412;28;20475;-68
2023/12/30 00:13:38;;;;;;;16.57;16.07;;;22.00;54.40;;;;;;4992850;28;20474;-68
2023/12/30 00:16:05;;;;;;;16.80;16.17;;;22.00;54.40;;;;;;4993259;28;20895;-69
2023/12/30 00:18:33;;;;;;;17.10;16.40;;;22.00;54.50;;;;;;5002157;28;20467;-68
2023/12/30 00:21:01;;;;;;;18.20;17.40;;;21.90;54.40;;;;;;4998603;28;20506;-68
2023/12/30 00:23:28;;;;;;;16.43;15.93;;;21.90;54.50;;;;;;4992780;28;20446;-68
2023/12/30 00:25:55;;;;;;;16.40;15.90;;;21.90;54.60;;;;;;4992512;28;20866;-67
2023/12/30 00:28:22;;;;;;;16.30;15.80;;;21.90;54.50;;;;;;4992513;28;20522;-67
2023/12/30 00:30:49;;;;;;;16.30;15.80;;;21.90;54.60;;;;;;4992370;28;20435;-67
2023/12/30 00:33:16;;;;;;;16.90;16.20;;;21.80;54.60;;;;;;4992381;28;20470;-67
2023/12/30 00:35:44;;;;;;;16.13;15.60;;;21.80;54.60;;;;;;4992359;28;20525;-67
2023/12/30 00:38:11;;;;;;;17.17;16.67;;;21.90;54.70;;;;;;4992264;28;20455;-67
2023/12/30 00:40:38;;;;;;;17.93;17.33;;;21.80;54.60;;;;;;4992447;28;20529;-68
2023/12/30 00:43:05;;;;;;;16.40;16.00;;;21.80;54.60;;;;;;4992190;28;20482;-68
2023/12/30 00:45:32;;;;;;;17.10;16.60;;;21.80;54.60;;;;;;4992267;28;20495;-67
2023/12/30 00:47:58;;;;;;;17.13;16.60;;;21.80;54.60;;;;;;4992265;28;20470;-68
2023/12/30 00:50:25;;;;;;;17.17;16.57;;;21.80;54.70;;;;;;4992590;28;20471;-67
2023/12/30 00:52:53;;;;;;;17.37;16.73;;;21.80;54.70;;;;;;4992180;28;20258;-67
2023/12/30 00:55:20;;;;;;;16.90;16.40;;;21.80;54.70;;;;;;4992045;28;20521;-68
2023/12/30 00:57:47;;;;;;;16.10;15.70;;;21.80;54.60;;;;;;4992191;28;20473;-67
2023/12/30 01:00:15;;;;;;;15.60;15.20;;;21.80;54.60;;;;;;4992085;28;20514;-67
2023/12/30 01:02:42;;;;;;;17.47;16.87;;;21.80;54.60;;;;;;4992170;28;20522;-67
2023/12/30 01:05:09;;;;;;;17.80;17.20;;;21.80;54.60;;;;;;4987653;28;20498;-67
2023/12/30 01:07:36;;;;;;;17.00;16.50;;;21.80;54.60;;;;;;4991935;28;20518;-67
2023/12/30 01:10:05;;;;;;;16.50;16.00;;;21.70;54.60;;;;;;4991813;28;20477;-67
2023/12/30 01:12:32;;;;;;;17.20;16.60;;;21.80;54.60;;;;;;4991859;28;20451;-68
2023/12/30 01:14:59;;;;;;;16.80;16.40;;;21.80;54.60;;;;;;4991694;28;20498;-67
2023/12/30 01:17:26;;;;;;;15.77;15.23;;;21.70;54.60;;;;;;4991966;28;20935;-68
2023/12/30 01:19:53;;;;;;;16.07;15.47;;;21.80;54.70;;;;;;4992082;28;20459;-68
2023/12/30 01:22:20;;;;;;;16.73;16.23;;;21.70;54.60;;;;;;4991960;28;20447;-67
2023/12/30 01:24:46;;;;;;;16.67;16.17;;;21.70;54.70;;;;;;4991916;28;20505;-66
2023/12/30 01:27:15;;;;;;;17.03;16.53;;;21.70;54.70;;;;;;4991636;28;20478;-68
2023/12/30 01:29:41;;;;;;;16.50;16.10;;;21.70;54.70;;;;;;4991568;28;20965;-68
2023/12/30 01:32:08;;;;;;;16.70;16.10;;;21.70;54.70;;;;;;4991608;28;20470;-68
2023/12/30 01:34:35;;;;;;;16.33;15.93;;;21.70;54.80;;;;;;4994308;28;20465;-67
2023/12/30 01:37:02;;;;;;;16.03;15.53;;;21.70;54.80;;;;;;4992852;28;20482;-67
2023/12/30 01:39:29;;;;;;;16.00;15.60;;;21.70;54.80;;;;;;4994975;28;20453;-67
2023/12/30 01:41:56;;;;;;;15.90;15.40;;;21.70;54.90;;;;;;4995046;28;20520;-68
2023/12/30 01:44:24;;;;;;;16.37;15.87;;;21.70;55.00;;;;;;4995013;28;20544;-67
2023/12/30 01:46:52;;;;;;;16.43;15.93;;;21.60;54.90;;;;;;5002788;28;20501;-67
2023/12/30 01:49:19;;;;;;;17.13;16.53;;;21.60;55.00;;;;;;4994935;28;20451;-68
2023/12/30 01:51:46;;;;;;;16.30;15.80;;;21.70;55.00;;;;;;4994893;28;20470;-67
2023/12/30 01:54:13;;;;;;;16.53;16.10;;;21.60;54.90;;;;;;4994900;28;20471;-67
2023/12/30 01:56:40;;;;;;;17.53;17.03;;;21.60;54.90;;;;;;4994506;28;20466;-67
2023/12/30 01:59:07;;;;;;;16.20;15.70;;;21.60;54.90;;;;;;4994977;28;20980;-67
2023/12/30 02:01:35;;;;;;;16.83;16.33;;;21.60;54.90;;;;;;4994556;28;20513;-68
2023/12/30 02:04:02;;;;;;;16.73;16.33;;;21.60;55.50;;;;;;4994691;28;20478;-68
2023/12/30 02:06:29;;;;;;;16.40;15.90;;;21.60;54.90;;;;;;4994346;28;20491;-67
2023/12/30 02:08:56;;;;;;;16.10;15.70;;;21.60;55.00;;;;;;4994431;28;20502;-68
2023/12/30 02:11:23;;;;;;;16.50;16.00;;;21.60;55.00;;;;;;5002588;28;20482;-67
2023/12/30 02:13:50;;;;;;;16.60;16.00;;;21.60;55.00;;;;;;4994633;28;20439;-67
2023/12/30 02:16:17;;;;;;;16.07;15.47;;;21.60;55.00;;;;;;4995458;28;20470;-68
2023/12/30 02:18:45;;;;;;;16.87;16.37;;;21.50;55.00;;;;;;4994416;28;20926;-68
2023/12/30 02:21:12;;;;;;;16.20;15.80;;;21.50;55.00;;;;;;4994419;28;20562;-68
2023/12/30 02:23:40;;;;;;;17.30;16.70;;;21.60;55.10;;;;;;5000936;28;20474;-67
2023/12/30 02:26:07;;;;;;;16.30;15.80;;;21.50;55.00;;;;;;5000637;28;20982;-68
2023/12/30 02:28:34;;;;;;;16.70;16.10;;;21.60;55.20;;;;;;4994045;28;20449;-68
2023/12/30 02:31:03;;;;;;;15.50;15.10;;;21.50;55.10;;;;;;4994332;28;20470;-68
2023/12/30 02:33:30;;;;;;;16.70;16.27;;;21.60;55.20;;;;;;4994063;28;20478;-68
2023/12/30 02:35:57;;;;;;;16.83;16.40;;;21.50;55.10;;;;;;4998010;28;20499;-68
2023/12/30 02:38:24;;;;;;;16.63;16.13;;;21.60;55.20;;;;;;4993957;28;20553;-68
2023/12/30 02:40:52;;;;;;;16.03;15.63;;;21.50;55.10;;;;;;4993837;28;20517;-68
2023/12/30 02:43:19;;;;;;;17.10;16.60;;;21.50;55.10;;;;;;4993894;28;20962;-68
2023/12/30 02:45:46;;;;;;;17.73;17.20;;;21.50;55.20;;;;;;4993851;28;21060;-68
2023/12/30 02:48:13;;;;;;;16.83;16.23;;;21.50;55.20;;;;;;4993270;28;20497;-67
2023/12/30 02:50:39;;;;;;;16.57;15.97;;;21.50;55.20;;;;;;4993368;28;20479;-67
2023/12/30 02:53:05;;;;;;;17.17;16.57;;;21.50;55.20;;;;;;4993671;28;20475;-67
2023/12/30 02:55:32;;;;;;;16.60;16.00;;;21.50;55.20;;;;;;4993470;28;20494;-67
2023/12/30 02:58:00;;;;;;;16.73;16.23;;;21.50;55.30;;;;;;4993854;28;20238;-68
2023/12/30 03:00:27;;;;;;;16.70;16.30;;;21.50;55.30;;;;;;4999906;28;20474;-67
2023/12/30 03:02:54;;;;;;;16.70;16.20;;;21.50;55.30;;;;;;4993548;28;20443;-67
2023/12/30 03:05:21;;;;;;;17.60;17.00;;;21.50;55.20;;;;;;4993295;28;20495;-67
2023/12/30 03:07:48;;;;;;;16.60;16.10;;;21.50;55.20;;;;;;4993434;28;20485;-67
2023/12/30 03:10:15;;;;;;;16.03;15.43;;;21.50;55.20;;;;;;4993262;28;20479;-67
2023/12/30 03:12:42;;;;;;;17.80;17.10;;;21.50;55.30;;;;;;4993116;28;20443;-68
2023/12/30 03:15:11;;;;;;;17.00;16.50;;;21.50;55.30;;;;;;4993090;28;20834;-67
2023/12/30 03:17:37;;;;;;;16.87;16.27;;;21.50;55.30;;;;;;4993509;28;20443;-67
2023/12/30 03:20:09;;;;;;;17.40;16.90;;;21.50;55.30;;;;;;4994372;28;20467;-67
2023/12/30 03:22:36;;;;;;;17.37;16.87;;;21.40;55.30;;;;;;4992943;28;20490;-67
2023/12/30 03:25:03;;;;;;;17.50;17.00;;;21.50;55.40;;;;;;4993000;28;20524;-67
2023/12/30 03:27:31;;;;;;;18.07;17.47;;;21.50;55.40;;;;;;4992925;28;20557;-68
2023/12/30 03:29:58;;;;;;;17.17;16.67;;;21.40;55.30;;;;;;4993475;28;20451;-68
2023/12/30 03:32:28;;;;;;;17.60;17.10;;;21.50;55.40;;;;;;4992797;28;20959;-67
2023/12/30 03:34:55;;;;;;;16.70;16.20;;;21.40;55.40;;;;;;4992860;28;20486;-68
2023/12/30 03:37:22;;;;;;;17.23;16.63;;;21.40;55.40;;;;;;4992863;28;20485;-67
2023/12/30 03:39:49;;;;;;;17.87;17.13;;;21.40;55.40;;;;;;4992845;28;20477;-67
2023/12/30 03:42:15;;;;;;;16.50;16.00;;;21.40;55.30;;;;;;4992912;28;20507;-67
2023/12/30 03:44:42;;;;;;;16.70;16.30;;;21.40;55.30;;;;;;4992776;28;21047;-67
2023/12/30 03:47:09;;;;;;;17.60;17.10;;;21.40;55.30;;;;;;4992778;28;20946;-67
2023/12/30 03:49:37;;;;;;;17.73;17.23;;;21.40;55.30;;;;;;4992551;28;20973;-67
2023/12/30 03:52:05;;;;;;;16.53;16.10;;;21.50;55.40;;;;;;4992616;28;20478;-67
2023/12/30 03:54:32;;;;;;;16.60;16.10;;;21.40;55.40;;;;;;4992588;28;20499;-67
2023/12/30 03:56:59;;;;;;;17.67;17.17;;;21.40;55.40;;;;;;4992710;28;20444;-67
2023/12/30 03:59:26;;;;;;;17.00;16.60;;;21.40;55.40;;;;;;4992182;28;20481;-67
2023/12/30 04:01:53;;;;;;;18.53;18.00;;;21.40;55.40;;;;;;4992416;28;20595;-67
2023/12/30 04:04:19;;;;;;;17.40;16.90;;;21.40;55.40;;;;;;4992618;28;20475;-67
2023/12/30 04:06:48;;;;;;;18.10;17.50;;;21.40;55.40;;;;;;4993111;28;20435;-67
2023/12/30 04:09:15;;;;;;;17.70;17.13;;;21.40;55.60;;;;;;4992434;28;20586;-67
2023/12/30 04:11:41;;;;;;;18.20;17.50;;;21.30;55.60;;;;;;4992199;28;20474;-67
2023/12/30 04:14:08;;;;;;;18.10;17.50;;;21.40;55.70;;;;;;4992206;28;20474;-67
2023/12/30 04:16:35;;;;;;;17.33;16.83;;;21.40;55.60;;;;;;4992130;28;20478;-67
2023/12/30 04:19:02;;;;;;;16.43;15.90;;;21.40;55.60;;;;;;4992437;28;20481;-67
2023/12/30 04:21:29;;;;;;;17.30;16.80;;;21.40;55.60;;;;;;4991985;28;20509;-67
2023/12/30 04:23:57;;;;;;;16.50;16.10;;;21.40;55.60;;;;;;4992308;28;20478;-67
2023/12/30 04:26:24;;;;;;;17.53;16.93;;;21.30;55.50;;;;;;5000147;28;20504;-67
2023/12/30 04:28:51;;;;;;;18.00;17.30;;;21.30;55.60;;;;;;4992123;28;20474;-67
2023/12/30 04:31:18;;;;;;;18.00;17.30;;;21.30;55.50;;;;;;4992135;28;20478;-67
2023/12/30 04:33:44;;;;;;;17.70;17.20;;;21.30;55.50;;;;;;4992066;28;20466;-67
2023/12/30 04:36:11;;;;;;;17.00;16.50;;;21.30;55.60;;;;;;4998213;28;20494;-67
2023/12/30 04:38:38;;;;;;;17.00;16.47;;;21.40;55.60;;;;;;4993258;28;20938;-68
2023/12/30 04:41:06;;;;;;;17.23;16.73;;;21.30;55.60;;;;;;4991998;28;20957;-68
2023/12/30 04:43:33;;;;;;;17.37;16.67;;;21.30;55.60;;;;;;4992067;28;20482;-67
2023/12/30 04:46:00;;;;;;;17.10;16.40;;;21.30;55.60;;;;;;4991936;28;20838;-67
2023/12/30 04:48:27;;;;;;;17.67;17.13;;;21.30;55.60;;;;;;4992090;28;20439;-67
2023/12/30 04:50:54;;;;;;;17.90;17.30;;;21.30;55.60;;;;;;4992109;28;20474;-67
2023/12/30 04:53:21;;;;;;;17.57;17.03;;;21.30;55.60;;;;;;4991936;28;20475;-67
2023/12/30 04:55:48;;;;;;;17.70;17.20;;;21.40;55.60;;;;;;4991715;28;20499;-67
2023/12/30 04:58:17;;;;;;;18.30;17.73;;;21.40;55.60;;;;;;4991929;28;20474;-67
2023/12/30 05:00:44;;;;;;;17.80;17.20;;;21.40;55.60;;;;;;4998404;28;20485;-67
2023/12/30 05:03:11;;;;;;;17.47;16.97;;;21.40;55.60;;;;;;4991760;28;20521;-67
2023/12/30 05:05:38;;;;;;;19.17;18.50;;;21.40;55.60;;;;;;4991666;28;20993;-67
2023/12/30 05:08:05;;;;;;;18.30;17.80;;;21.40;55.60;;;;;;4991723;28;20471;-67
2023/12/30 05:10:33;;;;;;;18.10;17.60;;;21.40;55.60;;;;;;4991637;28;20474;-68
2023/12/30 05:13:00;;;;;;;19.60;18.70;;;21.40;55.60;;;;;;4994388;28;20450;-67
2023/12/30 05:15:28;;;;;;;18.67;18.07;;;21.40;55.60;;;;;;4995163;28;20466;-67
2023/12/30 05:17:55;;;;;;;18.67;18.17;;;21.40;55.70;;;;;;4995465;28;20475;-68
2023/12/30 05:20:22;;;;;;;18.30;17.80;;;21.40;55.70;;;;;;4995585;28;20479;-68
2023/12/30 05:22:49;;;;;;;18.90;18.40;;;21.40;55.70;;;;;;4995082;28;20911;-67
2023/12/30 05:25:16;;;;;;;18.30;17.80;;;21.40;55.70;;;;;;4995483;28;20901;-67
2023/12/30 05:27:43;;;;;;;17.93;17.43;;;21.40;55.70;;;;;;4995492;28;20622;-67
2023/12/30 05:30:10;;;;;;;19.07;18.57;;;21.40;55.70;;;;;;4995550;28;20467;-67
2023/12/30 05:32:38;;;;;;;18.20;17.70;;;21.40;55.70;;;;;;4995093;28;20470;-67
2023/12/30 05:35:06;;;;;;;18.20;17.70;;;21.40;55.80;;;;;;4995112;28;20491;-67
2023/12/30 05:37:32;;;;;;;20.07;19.30;;;21.40;55.80;;;;;;4999704;28;20977;-67
2023/12/30 05:39:59;;;;;;;18.63;18.03;;;21.40;55.80;;;;;;4995157;28;20494;-67
2023/12/30 05:42:26;;;;;;;19.13;18.53;;;21.50;55.90;;;;;;4994902;28;20510;-67
2023/12/30 05:44:53;;;;;;;17.90;17.40;;;21.40;55.90;;;;;;4987061;28;21191;-67
2023/12/30 05:47:20;;;;;;;18.10;17.50;;;21.40;55.80;;;;;;4994955;28;20954;-67
2023/12/30 05:49:48;;;;;;;17.80;17.30;;;21.50;55.90;;;;;;4996632;28;20443;-67
2023/12/30 05:52:15;;;;;;;17.83;17.33;;;21.50;55.90;;;;;;4994792;28;20467;-67
2023/12/30 05:54:42;;;;;;;17.67;17.17;;;21.40;55.80;;;;;;4994549;28;20490;-67
2023/12/30 05:57:09;;;;;;;17.10;16.60;;;21.50;55.90;;;;;;4994937;28;20445;-67
2023/12/30 05:59:36;;;;;;;17.63;17.13;;;21.40;55.80;;;;;;4994594;28;20481;-67
2023/12/30 06:02:03;;;;;;;16.90;16.40;;;21.50;55.80;;;;;;4994754;28;20893;-67
2023/12/30 06:04:30;;;;;;;18.80;18.00;;;21.50;55.90;;;;;;4994379;28;20493;-67
2023/12/30 06:06:58;;;;;;;16.80;16.30;;;21.50;55.90;;;;;;4994739;28;20445;-67
2023/12/30 06:09:26;;;;;;;18.27;17.60;;;21.50;55.90;;;;;;4994550;28;20887;-67
2023/12/30 06:11:53;;;;;;;18.07;17.57;;;21.50;55.90;;;;;;4986492;28;20439;-67
2023/12/30 06:14:20;;;;;;;19.37;18.67;;;21.50;55.90;;;;;;5000756;28;20482;-67
2023/12/30 06:16:46;;;;;;;18.87;18.27;;;21.50;55.90;;;;;;4994679;28;20475;-67
2023/12/30 06:19:14;;;;;;;18.77;18.17;;;21.50;55.90;;;;;;4994340;28;20566;-67
2023/12/30 06:21:40;;;;;;;18.23;17.63;;;21.50;55.90;;;;;;4994015;28;20482;-67
2023/12/30 06:24:09;;;;;;;18.03;17.53;;;21.50;55.80;;;;;;4993038;28;20477;-67
2023/12/30 06:26:37;;;;;;;18.10;17.60;;;21.50;55.80;;;;;;4994383;28;20502;-67
2023/12/30 06:29:04;;;;;;;17.90;17.30;;;21.50;55.90;;;;;;4994332;28;20444;-67
2023/12/30 06:31:32;;;;;;;17.87;17.27;;;21.50;55.80;;;;;;4993963;28;20442;-67
2023/12/30 06:33:58;;;;;;;18.10;17.53;;;21.50;55.80;;;;;;4994355;28;20475;-67
2023/12/30 06:36:25;;;;;;;18.30;17.70;;;21.50;55.90;;;;;;4994084;28;20491;-67
2023/12/30 06:38:52;;;;;;;18.50;18.00;;;21.50;55.80;;;;;;4994049;28;20482;-67
2023/12/30 06:41:20;;;;;;;18.50;17.90;;;21.50;55.80;;;;;;4993935;28;20867;-67
2023/12/30 06:43:48;;;;;;;17.63;17.13;;;21.50;55.80;;;;;;4993881;28;20521;-67
2023/12/30 06:46:15;;;;;;;17.90;17.40;;;21.50;55.90;;;;;;4994034;28;20490;-67
2023/12/30 06:48:42;;;;;;;18.03;17.43;;;21.50;55.80;;;;;;4993665;28;20821;-67
2023/12/30 06:51:10;;;;;;;18.03;17.53;;;21.50;55.80;;;;;;4993798;28;20903;-67
2023/12/30 06:53:38;;;;;;;17.50;17.00;;;21.50;55.90;;;;;;4993807;28;20465;-67
2023/12/30 06:56:08;;;;;;;17.60;17.10;;;21.50;55.90;;;;;;4994076;28;21180;-67
2023/12/30 06:58:36;;;;;;;18.23;17.70;;;21.50;55.80;;;;;;4993827;28;20443;-67
2023/12/30 07:01:04;;;;;;;17.60;17.10;;;21.50;55.80;;;;;;4993469;28;20965;-67
2023/12/30 07:03:31;;;;;;;19.13;18.43;;;21.50;55.80;;;;;;4993429;28;20482;-67
2023/12/30 07:05:58;;;;;;;19.13;18.57;;;21.50;55.80;;;;;;4993511;28;20502;-67
2023/12/30 07:08:25;;;;;;;19.43;18.93;;;21.50;55.80;;;;;;4998902;28;20499;-67
2023/12/30 07:10:52;;;;;;;19.50;18.90;;;21.50;55.80;;;;;;4993598;28;20531;-67
2023/12/30 07:13:19;;;;;;;18.50;18.00;;;21.50;55.80;;;;;;4993392;28;20462;-67
2023/12/30 07:15:47;;;;;;;18.50;18.00;;;21.50;55.80;;;;;;4993103;28;20495;-67
2023/12/30 07:18:14;;;;;;;19.17;18.67;;;21.50;55.80;;;;;;4993069;28;20443;-67
2023/12/30 07:20:41;;;;;;;19.17;18.57;;;21.50;55.80;;;;;;4993268;28;20486;-67
2023/12/30 07:23:08;;;;;;;20.53;19.83;;;21.50;55.80;;;;;;4993228;28;20566;-67
2023/12/30 07:25:35;;;;;;;18.23;17.63;;;21.50;55.80;;;;;;4993087;28;20494;-67
2023/12/30 07:28:02;;;;;;;19.77;19.00;;;21.50;55.80;;;;;;4993082;28;20862;-67
2023/12/30 07:30:29;;;;;;;18.70;18.20;;;21.50;55.80;;;;;;4993023;28;20550;-67
2023/12/30 07:32:57;;;;;;;19.70;19.00;;;21.50;55.80;;;;;;4989763;28;20509;-67
2023/12/30 07:35:26;;;;;;;20.13;19.53;;;21.50;55.80;;;;;;4992678;28;20491;-67
2023/12/30 07:37:53;;;;;;;19.60;19.00;;;21.60;55.90;;;;;;4992716;28;21183;-67
2023/12/30 07:40:20;;;;;;;19.20;18.70;;;21.60;55.90;;;;;;4993011;28;20570;-67
2023/12/30 07:42:47;;;;;;;18.83;18.33;;;21.50;55.80;;;;;;4992787;28;20491;-67
2023/12/30 07:45:14;;;;;;;19.90;19.00;;;21.60;55.90;;;;;;4992660;28;20471;-68
2023/12/30 07:47:41;;;;;;;18.87;18.37;;;21.50;55.90;;;;;;4992430;28;20474;-71
2023/12/30 07:50:10;;;;;;;19.10;18.50;;;21.60;56.00;;;;;;4992607;28;20481;-71
2023/12/30 07:52:38;;;;;;;18.43;17.90;;;21.70;56.00;;;;;;4990082;28;20434;-71
2023/12/30 07:55:05;;;;;;;18.10;17.60;;;21.70;56.10;;;;;;4992492;28;20471;-70
2023/12/30 07:57:32;;;;;;;17.70;17.20;;;21.80;56.00;;;;;;4992357;28;20443;-69
2023/12/30 07:59:59;;;;;;;19.20;18.60;;;21.80;55.80;;;;;;4992695;28;20478;-68
2023/12/30 08:02:26;;;;;;;20.13;19.53;;;21.80;55.60;;;;;;4993269;28;20533;-68
2023/12/30 08:04:54;;;;;;;21.20;20.50;;;21.90;55.60;;;;;;4992767;28;20499;-68
2023/12/30 08:07:22;;;;;;;21.17;20.37;;;21.90;55.60;;;;;;4992430;28;20455;-68
2023/12/30 08:09:49;;;;;;;19.83;19.13;;;22.00;55.70;;;;;;4992553;28;20815;-69
2023/12/30 08:12:16;;;;;;;21.07;20.43;;;22.00;55.70;;;;;;4992621;28;20459;-72
2023/12/30 08:14:43;;;;;;;21.40;20.70;;;22.00;55.60;;;;;;4999095;28;20467;-69
2023/12/30 08:17:10;;;;;;;20.33;19.73;;;22.10;56.20;;;;;;5001564;23;20480;-68
2023/12/30 08:19:37;;;;;;;20.50;19.80;;;22.10;55.80;;;;;;4972877;28;21002;-68
2023/12/30 08:22:04;;;;;;;21.10;20.27;;;22.10;55.60;;;;;;4974239;28;20456;-68
2023/12/30 08:24:32;;;;;;;21.63;20.83;;;22.10;55.50;;;;;;4974940;28;20471;-71
2023/12/30 08:26:59;;;;;;;22.03;21.07;;;22.20;55.80;;;;;;4965550;28;20491;-70
2023/12/30 08:29:26;;;;;;;22.47;21.67;;;22.20;56.90;;;;;;4973441;28;21020;-71
2023/12/30 08:31:53;;;;;;;21.70;20.90;;;22.20;57.80;;;;;;4973239;28;20471;-69
2023/12/30 08:34:21;;;;;;;22.30;21.37;;;22.30;58.40;;;;;;4973104;28;20436;-70
2023/12/30 08:36:48;;;;;;;22.80;22.10;;;22.30;58.60;;;;;;4972796;28;21010;-69
2023/12/30 08:39:15;;;;;;;21.70;20.70;;;22.30;59.40;;;;;;4972391;28;20482;-69
2023/12/30 08:41:43;;;;;;;23.47;22.60;;;22.30;59.30;;;;;;4973739;28;20463;-70
2023/12/30 08:44:10;;;;;;;21.60;20.53;;;22.40;59.40;;;;;;4974580;28;20471;-70
2023/12/30 08:46:37;;;;;;;23.07;22.37;;;22.40;59.50;;;;;;4983428;28;20460;-70
2023/12/30 08:49:04;;;;;;;22.63;21.83;;;22.40;59.40;;;;;;4977415;28;20476;-72
2023/12/30 08:51:32;;;;;;;20.93;20.13;;;22.40;59.30;;;;;;4976719;28;20448;-65
2023/12/30 08:53:59;;;;;;;21.87;21.07;;;22.50;59.40;;;;;;4976648;28;20458;-65
2023/12/30 08:56:31;;;;;;;21.97;21.13;;;22.50;59.00;;;;;;4976526;28;20491;-65
2023/12/30 08:59:00;;;;;;;22.53;21.60;;;22.40;58.90;;;;;;4976492;28;20530;-65
2023/12/30 09:01:27;;;;;;;21.13;20.20;;;22.40;59.20;;;;;;4976375;28;20562;-65
2023/12/30 09:03:54;;;;;;;20.03;19.23;;;22.40;59.30;;;;;;4976354;28;20514;-65
2023/12/30 09:06:21;;;;;;;22.40;21.50;;;22.40;59.30;;;;;;4976369;28;20525;-65
2023/12/30 09:08:48;;;;;;;21.33;20.63;;;22.40;59.60;;;;;;4977327;28;20448;-70
2023/12/30 09:11:19;;;;;;;21.37;20.67;;;22.40;59.50;;;;;;4976268;28;20501;-70
2023/12/30 09:13:46;;;;;;;20.70;19.90;;;22.50;59.80;;;;;;4976048;28;20457;-70
2023/12/30 09:16:14;;;;;;;21.20;20.43;;;22.50;60.50;;;;;;4976030;28;20810;-70
2023/12/30 09:18:42;;;;;;;20.90;19.90;;;22.50;60.50;;;;;;4976252;28;20498;-68
2023/12/30 09:21:09;;;;;;;21.93;20.93;;;22.50;60.40;;;;;;4982473;28;20952;-68
2023/12/30 09:23:37;;;;;;;21.30;20.47;;;22.50;60.20;;;;;;4975775;28;20490;-68
2023/12/30 09:26:04;;;;;;;21.30;20.60;;;22.60;60.00;;;;;;4975775;28;20562;-69
2023/12/30 09:28:31;;;;;;;23.47;22.57;;;22.50;59.70;;;;;;4975802;28;20544;-68
2023/12/30 09:30:59;;;;;;;22.03;20.87;;;22.60;59.70;;;;;;4976604;28;20445;-68
2023/12/30 09:33:27;;;;;;;21.67;21.00;;;22.50;59.60;;;;;;4976162;28;21027;-74
2023/12/30 09:35:54;;;;;;;22.93;22.13;;;22.60;59.40;;;;;;4975948;28;20527;-71
2023/12/30 09:38:22;;;;;;;21.77;21.07;;;22.60;59.40;;;;;;4975640;28;20444;-68
2023/12/30 09:40:50;;;;;;;21.73;21.10;;;22.60;59.20;;;;;;4975633;28;20970;-69
2023/12/30 09:43:22;;;;;;;22.10;21.40;;;22.60;59.00;;;;;;4976505;28;20494;-68
2023/12/30 09:45:51;;;;;;;21.83;21.13;;;22.70;59.20;;;;;;4975438;28;20491;-69
2023/12/30 09:48:19;;;;;;;21.97;21.27;;;22.60;59.00;;;;;;4975481;28;20531;-70
2023/12/30 09:50:49;;;;;;;21.90;21.17;;;22.70;59.20;;;;;;4981582;28;20451;-69
2023/12/30 09:53:16;;;;;;;22.33;21.63;;;22.60;58.90;;;;;;4978328;28;20538;-69
2023/12/30 09:55:45;;;;;;;22.13;21.30;;;22.70;58.90;;;;;;4975148;28;20464;-68
2023/12/30 09:58:13;;;;;;;22.00;21.30;;;22.70;59.00;;;;;;4975067;28;20487;-68
2023/12/30 10:00:43;;;;;;;22.13;21.33;;;22.70;58.90;;;;;;4976678;28;20468;-70
2023/12/30 10:03:09;;;;;;;22.83;22.03;;;22.70;58.40;;;;;;4977424;28;20487;-71
2023/12/30 10:05:36;;;;;;;22.20;21.40;;;22.70;58.50;;;;;;4985362;28;20459;-71
2023/12/30 10:08:05;;;;;;;23.43;22.03;;;22.70;58.30;;;;;;4972273;28;20977;-71
2023/12/30 10:10:43;;;;;;;21.40;20.70;;;22.70;58.00;;;;;;4975137;28;20784;-71
2023/12/30 10:13:10;;;;;;;20.83;20.13;;;22.70;57.70;;;;;;4967904;28;20432;-72
2023/12/30 10:15:38;;;;;;;21.03;20.43;;;22.70;57.40;;;;;;4974066;28;20471;-71
2023/12/30 10:18:07;;;;;;;23.63;22.90;;;22.70;57.10;;;;;;4965768;28;20861;-72
2023/12/30 10:20:34;;;;;;;21.90;21.20;;;22.70;57.10;;;;;;4980277;28;20473;-69
2023/12/30 10:23:01;;;;;;;23.27;22.17;;;22.70;57.00;;;;;;4976955;28;20864;-68
2023/12/30 10:25:30;;;;;;;21.50;20.80;;;22.70;57.50;;;;;;4979409;28;20444;-69
2023/12/30 10:27:57;;;;;;;22.63;21.73;;;22.60;57.10;;;;;;4974617;28;20451;-68
2023/12/30 10:30:24;;;;;;;21.03;20.33;;;22.50;56.30;;;;;;4974805;28;20475;-69
2023/12/30 10:32:51;;;;;;;23.20;22.50;;;22.50;56.30;;;;;;4976638;28;20475;-68
2023/12/30 10:35:18;;;;;;;25.10;24.10;;;22.40;55.80;;;;;;4976669;28;20511;-68
2023/12/30 10:37:47;;;;;;;22.67;21.67;;;22.30;55.20;;;;;;4974473;28;20452;-69
2023/12/30 10:40:15;;;;;;;23.33;21.97;;;22.20;54.40;;;;;;4974531;28;20475;-69
2023/12/30 10:42:43;;;;;;;23.90;22.70;;;22.10;53.40;;;;;;4975463;28;20468;-68
2023/12/30 10:45:11;;;;;;;21.97;21.27;;;22.00;53.10;;;;;;4979626;28;20476;-69
2023/12/30 10:47:41;;;;;;;21.20;20.40;;;22.00;53.10;;;;;;4974419;28;20495;-68
2023/12/30 10:50:11;;;;;;;21.20;20.50;;;22.10;54.60;;;;;;4967053;28;20523;-70
2023/12/30 10:52:46;;;;;;;22.60;21.70;;;22.00;55.40;;;;;;4974560;28;20444;-70
2023/12/30 10:55:16;;;;;;;23.10;21.80;;;22.00;55.50;;;;;;4974310;28;20461;-70
2023/12/30 10:57:49;;;;;;;22.77;20.77;;;22.00;54.20;;;;;;4974063;28;20483;-70
2023/12/30 11:00:20;;;;;;;23.40;22.30;;;22.00;54.50;;;;;;4974164;28;20480;-71
2023/12/30 11:02:47;;;;;;;21.70;20.90;;;21.90;54.30;;;;;;4974584;28;20456;-71
2023/12/30 11:05:24;;;;;;;21.20;20.40;;;21.90;53.70;;;;;;4978346;28;20444;-71
2023/12/30 11:07:51;;;;;;;22.80;22.02;;;21.90;54.60;;;;;;4973820;28;20906;-70
2023/12/30 11:10:20;;;;;;;20.80;19.90;;;21.90;55.30;;;;;;4975435;28;20232;-70
2023/12/30 11:12:49;;;;;;;22.37;21.40;;;21.90;54.10;;;;;;4975731;28;20484;-70
2023/12/30 11:15:26;;;;;;;21.93;21.07;;;21.90;54.00;;;;;;4975171;28;20459;-66
2023/12/30 11:17:53;;;;;;;23.70;22.80;;;22.00;55.00;;;;;;4974040;28;20483;-68
2023/12/30 11:20:25;;;;;;;22.27;21.20;;;22.10;55.80;;;;;;4974004;28;20498;-68
2023/12/30 11:22:54;;;;;;;22.00;21.03;;;22.20;56.80;;;;;;4973742;28;20483;-67
2023/12/30 11:25:21;;;;;;;21.97;20.97;;;22.30;57.30;;;;;;4973706;28;20468;-67
2023/12/30 11:27:53;;;;;;;22.37;21.50;;;22.30;57.30;;;;;;4982896;28;20470;-68
2023/12/30 11:30:28;;;;;;;21.47;20.77;;;22.30;57.30;;;;;;4973600;28;20440;-69
2023/12/30 11:32:55;;;;;;;24.00;23.20;;;22.40;57.00;;;;;;4973733;28;20443;-68
2023/12/30 11:35:23;;;;;;;24.10;23.10;;;22.40;57.30;;;;;;4973631;28;20450;-70
2023/12/30 11:37:53;;;;;;;22.73;21.93;;;22.40;57.20;;;;;;4980590;28;20466;-69
2023/12/30 11:40:21;;;;;;;22.37;21.47;;;22.40;57.20;;;;;;4973399;28;20443;-68
2023/12/30 11:42:49;;;;;;;22.07;21.37;;;22.40;57.40;;;;;;4973246;28;20443;-68
2023/12/30 11:45:16;;;;;;;23.00;22.20;;;22.40;57.40;;;;;;4973589;28;20519;-69
2023/12/30 11:47:46;;;;;;;23.57;22.67;;;22.40;57.40;;;;;;4978885;28;20497;-69
2023/12/30 11:50:14;;;;;;;22.33;21.63;;;22.40;57.30;;;;;;4973294;28;20436;-68
2023/12/30 11:52:46;;;;;;;23.13;22.43;;;22.40;56.90;;;;;;4973308;28;20440;-69
2023/12/30 11:55:13;;;;;;;21.50;20.80;;;22.40;57.10;;;;;;4965990;28;20439;-69
2023/12/30 11:57:40;;;;;;;21.50;20.50;;;22.40;56.90;;;;;;4972493;28;20454;-70
2023/12/30 12:00:11;;;;;;;22.73;21.70;;;22.50;56.80;;;;;;4973054;28;20451;-68
2023/12/30 12:02:38;;;;;;;22.70;21.80;;;22.60;56.20;;;;;;4973154;28;20472;-67
2023/12/30 12:05:06;;;;;;;22.23;21.42;;;22.70;55.90;;;;;;4972882;28;20489;-69
2023/12/30 12:07:33;;;;;;;19.35;18.35;;;22.70;55.80;;;;;;4973945;28;20922;-70
2023/12/30 12:09:59;;;;;;;19.00;18.30;;;22.70;55.80;;;;;;4971896;28;20434;-70
2023/12/30 12:12:34;;;;;;;21.93;21.20;;;22.70;55.90;;;;;;4972929;28;20196;-70
2023/12/30 12:15:01;;;;;;;19.48;18.77;;;22.80;55.70;;;;;;4972026;28;20477;-71
2023/12/30 12:17:29;;;;;;;22.20;21.50;;;22.70;55.60;;;;;;4974582;28;20267;-70
2023/12/30 12:19:57;;;;;;;23.17;22.37;;;22.70;55.80;;;;;;4973064;28;20475;-70
2023/12/30 12:22:24;;;;;;;22.30;21.40;;;22.70;55.70;;;;;;4972923;28;20479;-70
2023/12/30 12:24:51;;;;;;;21.43;20.63;;;22.70;55.70;;;;;;4972349;28;20550;-69
2023/12/30 12:27:20;;;;;;;21.80;21.20;;;22.60;55.70;;;;;;4973629;28;20467;-69
2023/12/30 12:29:49;;;;;;;20.90;20.20;;;22.70;55.80;;;;;;4972385;28;20450;-69